createdAt,value
2023-02-22T00:01:51.988Z,5.20
2023-02-22T00:04:21.345Z,4.93
2023-02-22T00:06:50.070Z,5.30
2023-02-22T00:09:20.841Z,5.80
2023-02-22T00:11:49.574Z,5.40
2023-02-22T00:14:20.272Z,4.67
2023-02-22T00:16:47.606Z,5.33
2023-02-22T00:19:14.872Z,6.07
2023-02-22T00:21:47.760Z,6.27
2023-02-22T00:24:25.420Z,5.50
2023-02-22T00:26:55.553Z,4.90
2023-02-22T00:29:23.416Z,5.10
2023-02-22T00:31:54.015Z,5.30
2023-02-22T00:34:23.368Z,5.07
2023-02-22T00:36:50.787Z,4.47
2023-02-22T00:39:18.281Z,4.33
2023-02-22T00:41:45.859Z,4.77
2023-02-22T00:44:13.231Z,4.70
2023-02-22T00:46:40.489Z,4.93
2023-02-22T00:49:07.968Z,4.33
2023-02-22T00:51:35.145Z,5.43
2023-02-22T00:54:02.622Z,5.83
2023-02-22T00:56:29.909Z,4.37
2023-02-22T00:58:57.092Z,4.40
2023-02-22T01:01:24.494Z,4.60
2023-02-22T01:03:52.004Z,5.30
2023-02-22T01:06:19.754Z,5.47
2023-02-22T01:08:47.778Z,5.23
2023-02-22T01:11:16.786Z,4.97
2023-02-22T01:13:47.221Z,5.43
2023-02-22T01:16:15.023Z,4.50
2023-02-22T01:18:42.239Z,4.97
2023-02-22T01:21:09.537Z,4.40
2023-02-22T01:23:36.722Z,4.23
2023-02-22T01:26:05.760Z,5.10
2023-02-22T01:28:33.822Z,4.00
2023-02-22T01:31:02.443Z,4.13
2023-02-22T01:33:30.202Z,4.77
2023-02-22T01:35:57.424Z,4.23
2023-02-22T01:38:24.660Z,4.90
2023-02-22T01:40:52.430Z,5.70
2023-02-22T01:43:21.329Z,4.23
2023-02-22T01:45:50.441Z,4.40
2023-02-22T01:48:29.933Z,3.50
2023-02-22T01:51:02.858Z,5.00
2023-02-22T01:53:36.718Z,4.90
2023-02-22T01:56:04.601Z,4.90
2023-02-22T01:58:33.704Z,4.43
2023-02-22T02:01:01.259Z,4.30
2023-02-22T02:03:33.260Z,4.83
2023-02-22T02:06:01.829Z,5.13
2023-02-22T02:08:28.959Z,5.37
2023-02-22T02:10:58.080Z,4.30
2023-02-22T02:13:26.146Z,4.80
2023-02-22T02:15:55.155Z,4.60
2023-02-22T02:18:23.113Z,4.10
2023-02-22T02:21:08.734Z,4.23
2023-02-22T02:23:55.152Z,6.00
2023-02-22T02:26:22.378Z,6.47
2023-02-22T02:28:58.410Z,5.60
2023-02-22T02:31:36.190Z,5.77
2023-02-22T02:34:15.107Z,5.83
2023-02-22T02:36:48.741Z,6.30
2023-02-22T02:39:21.226Z,7.60
2023-02-22T02:41:50.788Z,6.60
2023-02-22T02:44:50.343Z,7.03
2023-02-22T02:47:22.672Z,7.20
2023-02-22T02:49:58.898Z,7.67
2023-02-22T02:52:26.719Z,8.23
2023-02-22T02:54:54.379Z,9.27
2023-02-22T02:57:21.982Z,10.60
2023-02-22T02:59:49.199Z,9.70
2023-02-22T03:02:21.048Z,10.73
2023-02-22T03:04:51.015Z,11.17
2023-02-22T03:07:18.167Z,12.20
2023-02-22T03:10:04.208Z,12.13
2023-02-22T03:12:31.369Z,14.17
2023-02-22T03:15:00.311Z,14.20
2023-02-22T03:17:31.945Z,14.73
2023-02-22T03:20:02.349Z,15.07
2023-02-22T03:22:36.150Z,14.17
2023-02-22T03:25:07.133Z,13.23
2023-02-22T03:27:37.197Z,12.67
2023-02-22T03:30:08.562Z,14.60
2023-02-22T03:32:40.056Z,14.73
2023-02-22T03:35:13.085Z,16.83
2023-02-22T03:37:43.223Z,18.50
2023-02-22T03:40:15.808Z,18.27
2023-02-22T03:42:51.787Z,16.90
2023-02-22T03:45:20.109Z,15.77
2023-02-22T03:47:52.347Z,16.17
2023-02-22T03:50:26.419Z,14.67
2023-02-22T03:52:54.219Z,16.03
2023-02-22T03:55:21.570Z,17.43
2023-02-22T03:57:50.675Z,22.47
2023-02-22T04:00:20.652Z,29.83
2023-02-22T04:02:47.922Z,33.50
2023-02-22T04:05:15.571Z,31.90
2023-02-22T04:07:43.208Z,39.03
2023-02-22T04:10:11.137Z,41.97
2023-02-22T04:12:38.402Z,38.80
2023-02-22T04:15:06.372Z,38.67
2023-02-22T04:17:33.577Z,38.50
2023-02-22T04:20:00.760Z,39.77
2023-02-22T04:22:27.933Z,40.97
2023-02-22T04:24:55.116Z,39.37
2023-02-22T04:27:22.381Z,38.57
2023-02-22T04:29:49.625Z,36.77
2023-02-22T04:32:17.075Z,38.50
2023-02-22T04:34:44.287Z,41.60
2023-02-22T04:37:12.298Z,45.47
2023-02-22T04:39:39.658Z,46.20
2023-02-22T04:42:06.946Z,43.40
2023-02-22T04:44:34.180Z,45.37
2023-02-22T04:47:01.510Z,47.03
2023-02-22T04:49:28.787Z,49.07
2023-02-22T04:51:55.994Z,45.67
2023-02-22T04:54:23.205Z,43.80
2023-02-22T04:56:50.418Z,40.57
2023-02-22T04:59:17.677Z,41.47
2023-02-22T05:01:44.910Z,40.63
2023-02-22T05:04:12.391Z,38.50
2023-02-22T05:06:39.720Z,38.17
2023-02-22T05:09:06.984Z,35.33
2023-02-22T05:11:34.200Z,37.83
2023-02-22T05:14:01.432Z,38.63
2023-02-22T05:16:28.622Z,35.93
2023-02-22T05:18:55.800Z,34.87
2023-02-22T05:21:23.624Z,34.27
2023-02-22T05:23:50.807Z,29.93
2023-02-22T05:26:19.056Z,29.23
2023-02-22T05:28:46.285Z,25.97
2023-02-22T05:31:13.709Z,28.60
2023-02-22T05:33:40.960Z,29.20
2023-02-22T05:36:08.571Z,29.10
2023-02-22T05:38:43.178Z,30.17
2023-02-22T05:41:11.139Z,28.43
2023-02-22T05:43:38.760Z,26.40
2023-02-22T05:46:06.087Z,23.67
2023-02-22T05:48:33.466Z,23.53
2023-02-22T05:51:00.674Z,23.43
2023-02-22T05:53:27.994Z,21.60
2023-02-22T05:55:55.442Z,21.97
2023-02-22T05:58:22.773Z,21.00
2023-02-22T06:00:49.962Z,19.20
2023-02-22T06:03:17.191Z,21.47
2023-02-22T06:05:44.430Z,19.87
2023-02-22T06:08:12.107Z,19.27
2023-02-22T06:10:39.482Z,16.87
2023-02-22T06:13:07.257Z,17.40
2023-02-22T06:15:34.778Z,16.47
2023-02-22T06:18:02.328Z,16.80
2023-02-22T06:20:30.271Z,17.90
2023-02-22T06:22:58.754Z,16.40
2023-02-22T06:25:27.736Z,21.10
2023-02-22T06:27:54.921Z,22.90
2023-02-22T06:30:23.759Z,24.73
2023-02-22T06:32:51.168Z,31.57
2023-02-22T06:35:18.830Z,42.13
2023-02-22T06:37:46.127Z,36.50
2023-02-22T06:40:14.051Z,35.23
2023-02-22T06:42:44.192Z,30.90
2023-02-22T06:45:11.530Z,24.50
2023-02-22T06:47:40.305Z,21.80
2023-02-22T06:50:07.748Z,19.90
2023-02-22T06:52:35.058Z,20.13
2023-02-22T06:55:02.240Z,18.60
2023-02-22T06:57:29.406Z,17.07
2023-02-22T06:59:57.506Z,15.50
2023-02-22T07:02:24.693Z,20.30
2023-02-22T07:04:51.901Z,20.67
2023-02-22T07:07:19.210Z,19.97
2023-02-22T07:09:47.851Z,19.93
2023-02-22T07:12:15.102Z,20.33
2023-02-22T07:14:42.270Z,18.40
2023-02-22T07:17:09.483Z,16.17
2023-02-22T07:19:36.726Z,16.33
2023-02-22T07:22:03.897Z,14.10
2023-02-22T07:24:31.203Z,12.70
2023-02-22T07:26:58.380Z,11.67
2023-02-22T07:29:25.552Z,12.20
2023-02-22T07:31:52.911Z,11.47
2023-02-22T07:34:20.282Z,11.60
2023-02-22T07:36:47.494Z,13.33
2023-02-22T07:39:14.795Z,12.17
2023-02-22T07:41:42.090Z,13.07
2023-02-22T07:44:09.816Z,12.90
2023-02-22T07:46:37.015Z,14.60
2023-02-22T07:49:04.177Z,14.70
2023-02-22T07:51:31.348Z,14.50
2023-02-22T07:53:58.616Z,14.20
2023-02-22T07:56:25.815Z,14.13
2023-02-22T07:58:53.045Z,14.50
2023-02-22T08:01:20.281Z,14.33
2023-02-22T08:03:47.676Z,14.30
2023-02-22T08:06:15.359Z,15.43
2023-02-22T08:08:42.870Z,14.60
2023-02-22T08:11:10.135Z,14.23
2023-02-22T08:13:37.396Z,12.93
2023-02-22T08:16:04.813Z,11.40
2023-02-22T08:18:32.012Z,10.90
2023-02-22T08:20:59.342Z,10.20
2023-02-22T08:23:27.144Z,10.03
2023-02-22T08:25:54.888Z,9.43
2023-02-22T08:28:23.814Z,9.70
2023-02-22T08:30:51.346Z,10.17
2023-02-22T08:33:19.803Z,9.63
2023-02-22T08:35:49.567Z,11.10
2023-02-22T08:38:18.696Z,11.00
2023-02-22T08:40:46.209Z,10.10
2023-02-22T08:43:13.966Z,10.57
2023-02-22T08:45:41.626Z,9.23
2023-02-22T08:48:08.990Z,9.57
2023-02-22T08:50:36.389Z,9.33
2023-02-22T08:53:04.574Z,10.63
2023-02-22T08:55:33.730Z,10.10
2023-02-22T08:58:03.068Z,10.10
2023-02-22T09:00:33.294Z,9.23
2023-02-22T09:03:01.436Z,9.63
2023-02-22T09:05:31.138Z,10.20
2023-02-22T09:07:58.686Z,9.60
2023-02-22T09:10:27.422Z,8.67
2023-02-22T09:13:00.598Z,8.37
2023-02-22T09:15:28.459Z,7.30
2023-02-22T09:17:55.878Z,7.43
2023-02-22T09:20:23.790Z,6.93
2023-02-22T09:22:51.299Z,7.10
2023-02-22T09:25:20.645Z,7.63
2023-02-22T09:27:51.971Z,7.60
2023-02-22T09:30:38.108Z,7.67
2023-02-22T09:33:13.094Z,7.10
2023-02-22T09:35:46.279Z,6.93
2023-02-22T09:38:22.747Z,7.70
2023-02-22T09:40:51.514Z,6.90
2023-02-22T09:43:21.513Z,7.27
2023-02-22T09:46:24.410Z,7.13
2023-02-22T09:49:05.272Z,6.70
2023-02-22T09:51:39.884Z,6.60
2023-02-22T09:54:10.959Z,6.80
2023-02-22T09:56:39.559Z,5.93
2023-02-22T09:59:08.155Z,7.27
2023-02-22T10:01:39.875Z,8.00
2023-02-22T10:04:12.908Z,8.03
2023-02-22T10:06:41.482Z,7.90
2023-02-22T10:09:10.677Z,7.50
2023-02-22T10:11:52.534Z,7.57
2023-02-22T10:14:38.555Z,6.93
2023-02-22T10:17:14.855Z,7.10
2023-02-22T10:19:44.795Z,7.90
2023-02-22T10:22:15.236Z,9.60
2023-02-22T10:25:02.147Z,9.07
2023-02-22T10:27:32.960Z,8.27
2023-02-22T10:30:15.518Z,8.33
2023-02-22T10:33:09.695Z,8.23
2023-02-22T10:35:38.172Z,7.53
2023-02-22T10:38:16.608Z,8.13
2023-02-22T10:41:04.043Z,8.83
2023-02-22T10:43:31.600Z,8.17
2023-02-22T10:46:01.448Z,8.37
2023-02-22T10:48:30.279Z,8.37
2023-02-22T10:51:02.083Z,8.63
2023-02-22T10:53:29.969Z,8.23
2023-02-22T10:56:09.330Z,8.57
2023-02-22T10:58:55.528Z,7.80
2023-02-22T11:01:28.126Z,8.03
2023-02-22T11:03:59.588Z,7.23
2023-02-22T11:06:27.573Z,7.90
2023-02-22T11:09:12.637Z,8.27
2023-02-22T11:11:41.340Z,8.10
2023-02-22T11:14:12.638Z,8.27
2023-02-22T11:16:42.404Z,8.00
2023-02-22T11:19:18.209Z,8.50
2023-02-22T11:21:45.642Z,8.77
2023-02-22T11:24:14.368Z,7.47
2023-02-22T11:26:43.931Z,9.07
2023-02-22T11:29:12.538Z,8.53
2023-02-22T11:31:43.929Z,8.77
2023-02-22T11:34:26.210Z,8.33
2023-02-22T11:36:53.439Z,8.27
2023-02-22T11:39:25.745Z,8.30
2023-02-22T11:41:53.280Z,9.03
2023-02-22T11:44:25.628Z,9.13
2023-02-22T11:46:55.826Z,10.00
2023-02-22T11:49:33.320Z,9.80
2023-02-22T11:52:19.756Z,10.37
2023-02-22T11:55:02.348Z,9.40
2023-02-22T11:57:30.097Z,9.33
2023-02-22T12:00:26.734Z,9.50
2023-02-22T12:03:12.961Z,8.43
2023-02-22T12:05:40.562Z,8.50
2023-02-22T12:08:19.841Z,7.47
2023-02-22T12:10:58.560Z,8.13
2023-02-22T12:13:32.734Z,7.47
2023-02-22T12:16:06.700Z,8.03
2023-02-22T12:18:53.537Z,8.07
2023-02-22T12:21:22.742Z,7.83
2023-02-22T12:23:54.201Z,6.80
2023-02-22T12:26:25.003Z,6.70
2023-02-22T12:28:52.324Z,7.20
2023-02-22T12:31:23.160Z,6.97
2023-02-22T12:34:02.349Z,6.80
2023-02-22T12:36:47.234Z,6.53
2023-02-22T12:39:40.967Z,6.90
2023-02-22T12:42:16.486Z,5.80
2023-02-22T12:44:45.967Z,6.10
2023-02-22T12:47:19.151Z,6.37
2023-02-22T12:49:46.334Z,6.30
2023-02-22T12:52:32.903Z,7.30
2023-02-22T12:55:11.049Z,7.00
2023-02-22T12:57:44.567Z,7.13
2023-02-22T13:00:20.192Z,8.03
2023-02-22T13:03:10.668Z,7.57
2023-02-22T13:05:40.024Z,8.13
2023-02-22T13:08:16.336Z,7.83
2023-02-22T13:10:46.309Z,7.00
2023-02-22T13:13:16.444Z,7.33
2023-02-22T13:15:43.661Z,7.47
2023-02-22T13:18:15.413Z,7.70
2023-02-22T13:20:42.621Z,8.40
2023-02-22T13:23:19.217Z,7.97
2023-02-22T13:25:55.273Z,7.67
2023-02-22T13:28:32.295Z,7.47
2023-02-22T13:31:18.787Z,8.43
2023-02-22T13:34:04.515Z,8.00
2023-02-22T13:36:40.108Z,7.67
2023-02-22T13:39:20.055Z,7.67
2023-02-22T13:41:53.615Z,7.67
2023-02-22T13:44:37.198Z,7.10
2023-02-22T13:47:16.791Z,7.60
2023-02-22T13:49:49.886Z,7.30
2023-02-22T13:52:20.855Z,7.17
2023-02-22T13:55:11.335Z,7.33
2023-02-22T13:57:39.427Z,7.03
2023-02-22T14:00:16.009Z,5.83
2023-02-22T14:03:09.126Z,6.53
2023-02-22T14:05:42.873Z,6.40
2023-02-22T14:08:19.615Z,6.07
2023-02-22T14:10:46.901Z,6.00
2023-02-22T14:13:14.903Z,5.50
2023-02-22T14:16:00.725Z,5.80
2023-02-22T14:18:31.010Z,5.90
2023-02-22T14:21:08.937Z,5.13
2023-02-22T14:23:38.251Z,5.47
2023-02-22T14:26:17.447Z,5.50
2023-02-22T14:28:53.074Z,5.97
2023-02-22T14:31:34.891Z,5.20
2023-02-22T14:34:06.564Z,4.77
2023-02-22T14:36:39.936Z,5.57
2023-02-22T14:39:13.422Z,5.17
2023-02-22T14:41:43.972Z,4.90
2023-02-22T14:44:12.983Z,4.87
2023-02-22T14:46:42.350Z,4.60
2023-02-22T14:49:16.787Z,4.57
2023-02-22T14:51:45.574Z,4.30
2023-02-22T14:54:15.828Z,4.83
2023-02-22T14:56:51.876Z,4.30
2023-02-22T14:59:25.167Z,4.50
2023-02-22T15:02:11.537Z,4.07
2023-02-22T15:04:41.335Z,5.20
2023-02-22T15:07:10.463Z,4.53
2023-02-22T15:09:41.073Z,4.70
2023-02-22T15:12:10.492Z,4.97
2023-02-22T15:14:41.753Z,4.50
2023-02-22T15:17:13.287Z,3.97
2023-02-22T15:19:42.117Z,4.67
2023-02-22T15:22:20.588Z,4.10
2023-02-22T15:25:01.389Z,4.27
2023-02-22T15:27:29.013Z,4.87
2023-02-22T15:30:04.808Z,4.70
2023-02-22T15:32:49.974Z,4.60
2023-02-22T15:35:24.647Z,4.50
2023-02-22T15:38:02.508Z,4.93
2023-02-22T15:40:36.067Z,4.73
2023-02-22T15:43:08.985Z,4.87
2023-02-22T15:45:42.923Z,4.60
2023-02-22T15:48:15.927Z,4.80
2023-02-22T15:50:59.039Z,4.03
2023-02-22T15:53:32.903Z,4.10
2023-02-22T15:56:02.453Z,4.97
2023-02-22T15:58:30.114Z,4.80
2023-02-22T16:01:05.303Z,4.87
2023-02-22T16:03:44.995Z,4.30
2023-02-22T16:06:14.019Z,4.57
2023-02-22T16:08:54.798Z,5.43
2023-02-22T16:11:30.750Z,5.13
2023-02-22T16:14:00.964Z,4.80
2023-02-22T16:16:29.844Z,4.50
2023-02-22T16:19:15.742Z,4.40
2023-02-22T16:21:53.616Z,4.27
2023-02-22T16:24:31.573Z,4.50
2023-02-22T16:27:07.948Z,4.57
2023-02-22T16:29:35.211Z,4.70
2023-02-22T16:32:03.875Z,5.53
2023-02-22T16:34:31.144Z,6.00
2023-02-22T16:36:58.618Z,5.33
2023-02-22T16:39:29.181Z,6.20
2023-02-22T16:41:57.679Z,6.77
2023-02-22T16:44:25.743Z,6.50
2023-02-22T16:46:56.860Z,6.83
2023-02-22T16:49:24.357Z,7.17
2023-02-22T16:51:56.275Z,7.93
2023-02-22T16:54:28.999Z,8.07
2023-02-22T16:56:57.220Z,7.03
2023-02-22T16:59:24.607Z,6.43
2023-02-22T17:01:51.873Z,7.53
2023-02-22T17:04:20.571Z,7.40
2023-02-22T17:06:48.394Z,7.67
2023-02-22T17:09:15.773Z,7.43
2023-02-22T17:11:43.636Z,9.13
2023-02-22T17:14:11.435Z,7.80
2023-02-22T17:16:38.813Z,8.83
2023-02-22T17:19:10.450Z,9.30
2023-02-22T17:21:37.630Z,8.87
2023-02-22T17:24:04.935Z,8.50
2023-02-22T17:26:32.145Z,8.77
2023-02-22T17:28:59.521Z,9.03
2023-02-22T17:31:28.220Z,8.93
2023-02-22T17:33:57.135Z,9.03
2023-02-22T17:36:24.335Z,8.40
2023-02-22T17:38:51.544Z,8.50
2023-02-22T17:41:18.724Z,8.77
2023-02-22T17:43:45.906Z,8.70
2023-02-22T17:46:13.204Z,9.40
2023-02-22T17:48:40.438Z,10.47
2023-02-22T17:51:08.823Z,10.30
2023-02-22T17:53:36.217Z,10.47
2023-02-22T17:56:07.785Z,10.80
2023-02-22T17:58:35.120Z,11.80
2023-02-22T18:01:02.466Z,11.23
2023-02-22T18:03:30.866Z,11.40
2023-02-22T18:05:59.410Z,11.70
2023-02-22T18:08:27.603Z,14.60
2023-02-22T18:10:58.193Z,13.00
2023-02-22T18:13:26.865Z,13.20
2023-02-22T18:15:59.921Z,13.83
2023-02-22T18:18:27.608Z,11.80
2023-02-22T18:20:59.507Z,10.90
2023-02-22T18:23:28.142Z,10.70
2023-02-22T18:26:09.607Z,11.57
2023-02-22T18:28:37.956Z,10.93
2023-02-22T18:31:15.345Z,11.07
2023-02-22T18:33:46.663Z,12.20
2023-02-22T18:36:14.359Z,12.17
2023-02-22T18:38:45.201Z,11.70
2023-02-22T18:41:13.634Z,11.23
2023-02-22T18:43:41.505Z,11.67
2023-02-22T18:46:16.308Z,10.13
2023-02-22T18:48:43.936Z,10.33
2023-02-22T18:51:12.705Z,10.00
2023-02-22T18:53:41.173Z,8.97
2023-02-22T18:56:10.367Z,9.03
2023-02-22T18:58:38.821Z,8.83
2023-02-22T19:01:07.394Z,9.20
2023-02-22T19:03:38.288Z,9.20
2023-02-22T19:06:09.990Z,10.20
2023-02-22T19:08:39.643Z,9.60
2023-02-22T19:11:08.689Z,9.27
2023-02-22T19:13:36.076Z,10.33
2023-02-22T19:16:04.380Z,10.97
2023-02-22T19:18:31.807Z,10.50
2023-02-22T19:20:59.821Z,10.43
2023-02-22T19:23:28.352Z,11.13
2023-02-22T19:25:55.586Z,10.77
2023-02-22T19:28:28.052Z,10.83
2023-02-22T19:30:55.318Z,10.20
2023-02-22T19:33:26.065Z,10.57
2023-02-22T19:35:53.779Z,11.13
2023-02-22T19:38:21.118Z,11.07
2023-02-22T19:40:48.576Z,11.20
2023-02-22T19:43:15.816Z,10.57
2023-02-22T19:45:43.093Z,10.77
2023-02-22T19:48:10.391Z,10.63
2023-02-22T19:50:48.402Z,11.67
2023-02-22T19:53:18.871Z,10.80
2023-02-22T19:55:46.065Z,10.90
2023-02-22T19:58:15.375Z,11.07
2023-02-22T20:00:42.575Z,11.07
2023-02-22T20:03:13.274Z,11.40
2023-02-22T20:05:41.423Z,10.63
2023-02-22T20:08:09.328Z,12.33
2023-02-22T20:10:37.184Z,12.13
2023-02-22T20:13:04.367Z,12.27
2023-02-22T20:15:31.698Z,12.53
2023-02-22T20:18:00.300Z,12.07
2023-02-22T20:20:30.326Z,12.03
2023-02-22T20:22:59.367Z,12.70
2023-02-22T20:25:26.588Z,12.00
2023-02-22T20:27:53.792Z,12.77
2023-02-22T20:30:23.211Z,13.13
2023-02-22T20:32:50.533Z,12.50
2023-02-22T20:35:17.898Z,13.30
2023-02-22T20:37:45.354Z,12.93
2023-02-22T20:40:12.733Z,13.40
2023-02-22T20:42:40.702Z,14.23
2023-02-22T20:45:09.739Z,13.90
2023-02-22T20:47:37.884Z,13.60
2023-02-22T20:50:05.683Z,13.37
2023-02-22T20:52:33.275Z,13.10
2023-02-22T20:55:01.881Z,13.50
2023-02-22T20:57:29.055Z,12.60
2023-02-22T20:59:56.271Z,13.53
2023-02-22T21:02:23.451Z,13.90
2023-02-22T21:04:50.709Z,13.30
2023-02-22T21:07:17.945Z,15.10
2023-02-22T21:09:45.140Z,14.87
2023-02-22T21:12:13.740Z,13.90
2023-02-22T21:14:43.597Z,15.03
2023-02-22T21:17:10.829Z,14.73
2023-02-22T21:19:38.306Z,14.07
2023-02-22T21:22:08.677Z,13.70
2023-02-22T21:24:37.311Z,14.70
2023-02-22T21:27:06.886Z,14.53
2023-02-22T21:29:35.507Z,13.20
2023-02-22T21:32:03.296Z,14.27
2023-02-22T21:34:30.907Z,14.73
2023-02-22T21:36:58.168Z,14.33
2023-02-22T21:39:28.541Z,14.90
2023-02-22T21:42:00.226Z,14.50
2023-02-22T21:44:27.756Z,13.50
2023-02-22T21:46:55.020Z,14.13
2023-02-22T21:49:25.070Z,13.80
2023-02-22T21:51:52.692Z,14.40
2023-02-22T21:54:20.531Z,13.80
2023-02-22T21:56:47.994Z,14.30
2023-02-22T21:59:18.884Z,13.90
2023-02-22T22:01:48.131Z,14.10
2023-02-22T22:04:18.972Z,13.20
2023-02-22T22:06:50.209Z,13.50
2023-02-22T22:09:21.902Z,12.70
2023-02-22T22:11:50.708Z,12.93
2023-02-22T22:14:19.019Z,13.20
2023-02-22T22:16:46.953Z,12.93
2023-02-22T22:19:14.359Z,11.93
2023-02-22T22:21:41.939Z,13.10
2023-02-22T22:24:10.869Z,13.33
2023-02-22T22:26:38.567Z,11.87
2023-02-22T22:29:06.168Z,11.37
2023-02-22T22:31:33.695Z,12.70
2023-02-22T22:34:01.457Z,12.00
2023-02-22T22:36:28.744Z,11.63
2023-02-22T22:38:59.050Z,11.40
2023-02-22T22:41:28.210Z,11.57
2023-02-22T22:43:55.837Z,11.80
2023-02-22T22:46:23.242Z,11.00
2023-02-22T22:48:50.587Z,11.90
2023-02-22T22:51:21.811Z,11.90
2023-02-22T22:53:49.734Z,12.77
2023-02-22T22:56:18.419Z,11.37
2023-02-22T22:58:53.669Z,12.27
2023-02-22T23:01:26.979Z,11.97
2023-02-22T23:03:55.529Z,12.00
2023-02-22T23:06:30.997Z,9.90
2023-02-22T23:09:00.108Z,11.73
2023-02-22T23:11:28.800Z,11.37
2023-02-22T23:13:56.528Z,10.63
2023-02-22T23:16:25.055Z,11.43
2023-02-22T23:18:52.481Z,11.40
2023-02-22T23:21:24.334Z,10.70
2023-02-22T23:23:55.314Z,11.23
2023-02-22T23:26:22.544Z,10.63
2023-02-22T23:28:49.974Z,10.87
2023-02-22T23:31:18.516Z,10.57
2023-02-22T23:33:50.353Z,10.70
2023-02-22T23:36:18.443Z,12.30
2023-02-22T23:38:45.983Z,10.13
2023-02-22T23:41:16.634Z,10.90
2023-02-22T23:43:45.022Z,10.57
2023-02-22T23:46:13.457Z,10.50
2023-02-22T23:48:46.584Z,10.10
2023-02-22T23:51:14.802Z,11.20
2023-02-22T23:53:49.582Z,10.27
2023-02-22T23:56:18.629Z,10.53
2023-02-22T23:58:51.238Z,9.97
